createdAt,value
2023-01-13T00:04:22.193Z,52.82
2023-01-13T00:09:24.284Z,51.90
2023-01-13T00:14:27.302Z,51.88
2023-01-13T00:19:29.670Z,51.80
2023-01-13T00:24:31.782Z,51.16
2023-01-13T00:29:33.893Z,51.41
2023-01-13T00:34:36.094Z,51.71
2023-01-13T00:39:38.162Z,51.08
2023-01-13T00:44:40.203Z,51.67
2023-01-13T00:49:42.256Z,51.36
2023-01-13T00:54:44.315Z,51.65
2023-01-13T00:59:47.999Z,51.74
2023-01-13T01:04:51.547Z,51.64
2023-01-13T01:09:53.774Z,52.04
2023-01-13T01:14:55.952Z,51.97
2023-01-13T01:19:58.062Z,52.83
2023-01-13T01:25:00.198Z,52.77
2023-01-13T01:30:02.244Z,52.05
2023-01-13T01:35:05.175Z,52.27
2023-01-13T01:40:07.609Z,51.89
2023-01-13T01:45:21.688Z,51.98
2023-01-13T01:50:24.408Z,52.16
2023-01-13T01:55:31.151Z,51.75
2023-01-13T02:00:33.439Z,52.23
2023-01-13T02:05:35.982Z,51.57
2023-01-13T02:10:40.077Z,52.38
2023-01-13T02:16:05.361Z,52.04
2023-01-13T02:21:54.521Z,52.34
2023-01-13T02:27:14.769Z,52.38
2023-01-13T02:32:30.065Z,52.13
2023-01-13T02:37:36.455Z,52.58
2023-01-13T02:43:04.738Z,52.62
2023-01-13T02:48:09.459Z,52.70
2023-01-13T02:53:18.571Z,53.28
2023-01-13T02:58:25.339Z,53.13
2023-01-13T03:03:27.425Z,52.98
2023-01-13T03:09:15.135Z,53.20
2023-01-13T03:14:51.052Z,54.33
2023-01-13T03:20:04.385Z,54.11
2023-01-13T03:25:23.100Z,54.81
2023-01-13T03:30:45.106Z,53.67
2023-01-13T03:35:52.576Z,54.14
2023-01-13T03:40:59.548Z,54.09
2023-01-13T03:46:09.203Z,54.32
2023-01-13T03:51:18.402Z,53.77
2023-01-13T03:56:27.155Z,54.09
2023-01-13T04:01:42.412Z,54.29
2023-01-13T04:06:47.041Z,53.79
2023-01-13T04:12:09.784Z,53.84
2023-01-13T04:17:12.289Z,53.78
2023-01-13T04:22:14.409Z,54.20
2023-01-13T04:27:16.460Z,54.84
2023-01-13T04:32:18.866Z,54.50
2023-01-13T04:37:20.999Z,55.46
2023-01-13T04:42:23.041Z,55.88
2023-01-13T04:47:25.188Z,55.84
2023-01-13T04:52:27.325Z,55.40
2023-01-13T04:57:30.023Z,55.70
2023-01-13T05:02:32.245Z,55.43
2023-01-13T05:07:34.472Z,55.51
2023-01-13T05:12:55.009Z,55.72
2023-01-13T05:17:57.582Z,55.43
2023-01-13T05:23:18.181Z,55.05
2023-01-13T05:28:20.409Z,54.78
2023-01-13T05:33:22.567Z,55.49
2023-01-13T05:38:24.659Z,54.98
2023-01-13T05:43:27.912Z,54.56
2023-01-13T05:48:34.063Z,54.39
2023-01-13T05:53:36.847Z,54.32
2023-01-13T05:58:39.372Z,54.09
2023-01-13T06:03:41.585Z,54.42
2023-01-13T06:08:43.729Z,54.28
2023-01-13T06:13:45.933Z,54.62
2023-01-13T06:18:48.148Z,54.68
2023-01-13T06:23:50.257Z,56.04
2023-01-13T06:28:52.478Z,55.61
2023-01-13T06:34:05.826Z,54.88
2023-01-13T06:39:09.834Z,54.23
2023-01-13T06:44:12.233Z,54.62
2023-01-13T06:49:14.479Z,54.47
2023-01-13T06:54:16.712Z,54.30
2023-01-13T06:59:18.931Z,54.69
2023-01-13T07:04:21.106Z,54.60
2023-01-13T07:09:23.374Z,54.54
2023-01-13T07:14:45.016Z,54.05
2023-01-13T07:19:47.218Z,54.17
2023-01-13T07:24:49.518Z,54.17
2023-01-13T07:29:51.610Z,54.01
2023-01-13T07:34:53.768Z,53.25
2023-01-13T07:39:55.903Z,53.29
2023-01-13T07:44:58.070Z,52.89
2023-01-13T07:50:00.224Z,52.68
2023-01-13T07:55:02.450Z,51.91
2023-01-13T08:00:05.998Z,53.71
2023-01-13T08:05:09.040Z,54.15
2023-01-13T08:10:11.619Z,53.87
2023-01-13T08:15:16.432Z,52.92
2023-01-13T08:20:19.522Z,52.03
2023-01-13T08:25:27.216Z,51.57
2023-01-13T08:30:30.032Z,51.29
2023-01-13T08:35:32.253Z,51.29
2023-01-13T08:40:34.593Z,51.61
2023-01-13T08:45:36.972Z,51.25
2023-01-13T08:50:39.160Z,50.99
2023-01-13T08:55:41.486Z,50.25
2023-01-13T09:00:45.093Z,50.31
2023-01-13T09:05:47.637Z,49.86
2023-01-13T09:10:49.889Z,48.98
2023-01-13T09:15:56.239Z,48.76
2023-01-13T09:20:59.516Z,48.24
2023-01-13T09:26:01.900Z,48.35
2023-01-13T09:31:04.344Z,48.71
2023-01-13T09:36:08.022Z,48.03
2023-01-13T09:41:45.844Z,47.37
2023-01-13T09:46:53.744Z,47.52
2023-01-13T09:52:02.840Z,47.25
2023-01-13T09:57:13.234Z,46.88
2023-01-13T10:02:22.235Z,47.38
2023-01-13T10:07:24.654Z,47.28
2023-01-13T10:12:45.833Z,47.41
2023-01-13T10:18:18.980Z,47.94
2023-01-13T10:23:38.209Z,47.31
2023-01-13T10:28:40.414Z,47.84
2023-01-13T10:33:42.706Z,47.73
2023-01-13T10:38:50.447Z,48.23
2023-01-13T10:43:52.469Z,47.16
2023-01-13T10:48:56.601Z,47.59
2023-01-13T10:54:14.528Z,47.77
2023-01-13T10:59:27.519Z,47.51
2023-01-13T11:04:38.761Z,46.78
2023-01-13T11:09:41.640Z,46.60
2023-01-13T11:14:45.769Z,45.86
2023-01-13T11:20:05.455Z,45.28
2023-01-13T11:25:15.870Z,45.31
2023-01-13T11:30:44.443Z,44.81
2023-01-13T11:36:17.801Z,45.03
2023-01-13T11:41:47.650Z,44.58
2023-01-13T11:46:55.153Z,43.81
2023-01-13T11:52:16.231Z,43.84
2023-01-13T11:57:35.691Z,43.76
2023-01-13T12:03:05.244Z,42.50
2023-01-13T12:08:46.360Z,41.17
2023-01-13T12:13:48.394Z,41.91
2023-01-13T12:19:19.079Z,41.45
2023-01-13T12:24:41.743Z,41.43
2023-01-13T12:29:46.771Z,40.80
2023-01-13T12:35:23.780Z,40.07
2023-01-13T12:40:49.177Z,39.60
2023-01-13T12:45:52.585Z,39.50
2023-01-13T12:51:01.305Z,39.79
2023-01-13T12:56:25.148Z,40.13
2023-01-13T13:01:36.648Z,40.05
2023-01-13T13:06:44.117Z,39.69
2023-01-13T13:12:03.995Z,39.96
2023-01-13T13:17:29.637Z,40.25
2023-01-13T13:22:45.157Z,40.72
2023-01-13T13:28:21.025Z,41.09
2023-01-13T13:33:48.307Z,40.49
2023-01-13T13:39:17.372Z,40.63
2023-01-13T13:44:40.885Z,40.17
2023-01-13T13:49:54.907Z,40.53
2023-01-13T13:55:05.466Z,40.49
2023-01-13T14:00:18.412Z,40.36
2023-01-13T14:05:29.513Z,40.35
2023-01-13T14:11:03.368Z,40.08
2023-01-13T14:16:15.810Z,39.70
2023-01-13T14:21:25.896Z,39.72
2023-01-13T14:26:31.322Z,39.34
2023-01-13T14:31:41.385Z,38.84
2023-01-13T14:36:43.881Z,38.29
2023-01-13T14:41:48.687Z,37.28
2023-01-13T14:46:52.013Z,36.92
2023-01-13T14:51:54.845Z,36.69
2023-01-13T14:57:23.609Z,36.41
2023-01-13T15:02:26.089Z,36.42
2023-01-13T15:07:32.662Z,36.95
2023-01-13T15:12:40.290Z,37.85
2023-01-13T15:17:42.898Z,38.97
2023-01-13T15:22:45.543Z,39.58
2023-01-13T15:27:52.757Z,40.25
2023-01-13T15:32:58.761Z,40.99
2023-01-13T15:38:02.615Z,41.72
2023-01-13T15:43:23.513Z,41.97
2023-01-13T15:48:28.500Z,42.78
2023-01-13T15:53:30.752Z,43.00
2023-01-13T15:58:33.160Z,43.30
2023-01-13T16:03:35.555Z,43.70
2023-01-13T16:08:39.410Z,43.96
2023-01-13T16:13:41.591Z,44.55
2023-01-13T16:18:43.828Z,45.34
2023-01-13T16:23:46.011Z,45.54
2023-01-13T16:28:48.746Z,45.34
2023-01-13T16:33:51.658Z,45.78
2023-01-13T16:38:54.443Z,46.82
2023-01-13T16:43:56.631Z,46.97
2023-01-13T16:49:03.783Z,47.09
2023-01-13T16:54:06.266Z,47.91
2023-01-13T16:59:17.369Z,47.93
2023-01-13T17:04:22.163Z,48.62
2023-01-13T17:09:26.769Z,48.64
2023-01-13T17:14:29.010Z,48.67
2023-01-13T17:19:31.182Z,48.90
2023-01-13T17:24:35.580Z,49.31
2023-01-13T17:29:38.575Z,49.57
2023-01-13T17:34:40.764Z,50.70
2023-01-13T17:39:44.722Z,50.17
2023-01-13T17:44:48.614Z,49.97
2023-01-13T17:49:50.950Z,49.70
2023-01-13T17:54:53.373Z,49.65
2023-01-13T17:59:55.614Z,50.18
2023-01-13T18:04:57.821Z,50.26
2023-01-13T18:10:00.168Z,50.30
2023-01-13T18:15:02.445Z,50.96
2023-01-13T18:26:09.652Z,51.65
2023-01-13T18:31:12.071Z,51.42
2023-01-13T18:36:14.515Z,51.49
2023-01-13T18:41:36.111Z,51.12
2023-01-13T18:46:38.862Z,50.66
2023-01-13T18:51:41.365Z,51.00
2023-01-13T18:56:44.390Z,51.39
2023-01-13T19:01:46.697Z,51.12
2023-01-13T19:06:51.884Z,51.67
2023-01-13T19:11:54.079Z,51.69
2023-01-13T19:16:56.331Z,52.11
2023-01-13T19:21:58.792Z,52.39
2023-01-13T19:27:01.113Z,52.00
2023-01-13T19:32:03.564Z,53.16
2023-01-13T19:37:07.151Z,53.84
2023-01-13T19:42:30.817Z,53.38
2023-01-13T19:47:34.385Z,53.25
2023-01-13T19:52:36.857Z,53.48
2023-01-13T19:57:40.769Z,52.59
2023-01-13T20:02:49.723Z,52.71
2023-01-13T20:13:18.602Z,52.83
2023-01-13T20:18:21.113Z,52.64
2023-01-13T20:23:26.260Z,52.87
2023-01-13T20:28:28.685Z,54.01
2023-01-13T20:33:30.969Z,53.69
2023-01-13T20:38:38.986Z,53.75
2023-01-13T20:43:41.248Z,53.69
2023-01-13T20:48:43.473Z,53.93
2023-01-13T20:53:45.749Z,53.88
2023-01-13T20:58:47.946Z,54.70
2023-01-13T21:03:50.639Z,54.34
2023-01-13T21:08:54.673Z,54.90
2023-01-13T21:14:16.362Z,54.66
2023-01-13T21:19:18.606Z,53.89
2023-01-13T21:24:21.198Z,53.96
2023-01-13T21:29:23.569Z,53.89
2023-01-13T21:34:25.891Z,52.92
2023-01-13T21:39:28.990Z,53.44
2023-01-13T21:44:49.913Z,53.77
2023-01-13T21:49:52.220Z,54.27
2023-01-13T21:55:13.026Z,54.15
2023-01-13T22:00:15.912Z,55.78
2023-01-13T22:05:20.744Z,54.77
2023-01-13T22:10:25.958Z,53.81
2023-01-13T22:15:29.952Z,54.12
2023-01-13T22:20:32.174Z,53.29
2023-01-13T22:25:34.398Z,53.55
2023-01-13T22:30:36.835Z,54.80
2023-01-13T22:35:38.978Z,54.61
2023-01-13T22:40:41.141Z,55.07
2023-01-13T22:45:43.328Z,54.98
2023-01-13T22:50:45.930Z,54.12
2023-01-13T22:55:58.629Z,54.70
2023-01-13T23:01:17.695Z,54.71
2023-01-13T23:06:21.076Z,54.84
2023-01-13T23:11:25.603Z,54.86
2023-01-13T23:16:30.154Z,55.16
2023-01-13T23:21:36.334Z,54.83
2023-01-13T23:26:38.559Z,55.18
2023-01-13T23:31:41.394Z,55.03
2023-01-13T23:36:43.964Z,55.50
2023-01-13T23:41:46.144Z,55.37
2023-01-13T23:46:48.412Z,54.74
2023-01-13T23:51:51.894Z,55.06
2023-01-13T23:56:56.193Z,56.85
